createdAt,value
2023-08-14T00:04:27.898Z,19.20
2023-08-14T00:09:29.646Z,19.10
2023-08-14T00:14:31.634Z,19.10
2023-08-14T00:19:33.386Z,19.00
2023-08-14T00:24:35.380Z,19.00
2023-08-14T00:29:37.833Z,18.80
2023-08-14T00:34:39.746Z,18.80
2023-08-14T00:39:41.544Z,18.70
2023-08-14T00:44:43.297Z,18.70
2023-08-14T00:49:45.108Z,18.70
2023-08-14T00:54:47.047Z,18.60
2023-08-14T00:59:48.907Z,18.50
2023-08-14T01:04:50.723Z,18.50
2023-08-14T01:09:53.463Z,18.50
2023-08-14T01:15:03.366Z,18.50
2023-08-14T01:20:06.391Z,18.50
2023-08-14T01:25:30.015Z,18.50
2023-08-14T01:30:32.025Z,18.50
2023-08-14T01:36:00.936Z,18.40
2023-08-14T01:41:19.481Z,18.40
2023-08-14T01:46:21.621Z,18.40
2023-08-14T01:51:24.690Z,18.40
2023-08-14T01:56:26.464Z,18.30
2023-08-14T02:01:28.275Z,18.40
2023-08-14T02:06:32.779Z,18.30
2023-08-14T02:11:36.816Z,18.30
2023-08-14T02:16:38.617Z,18.30
2023-08-14T02:21:40.344Z,18.30
2023-08-14T02:26:42.138Z,18.20
2023-08-14T02:31:46.798Z,18.20
2023-08-14T02:36:48.573Z,18.10
2023-08-14T02:41:50.437Z,18.10
2023-08-14T02:46:52.247Z,18.00
2023-08-14T02:51:54.309Z,18.10
2023-08-14T02:56:56.166Z,18.10
2023-08-14T03:01:57.908Z,18.00
2023-08-14T03:06:59.678Z,18.10
2023-08-14T03:12:01.408Z,18.10
2023-08-14T03:17:03.271Z,18.20
2023-08-14T03:22:05.099Z,18.20
2023-08-14T03:27:06.881Z,18.20
2023-08-14T03:32:08.593Z,18.20
2023-08-14T03:37:12.385Z,18.20
2023-08-14T03:42:14.568Z,18.10
2023-08-14T03:47:16.417Z,18.30
2023-08-14T03:52:18.660Z,18.30
2023-08-14T03:57:20.772Z,18.40
2023-08-14T04:02:22.635Z,18.40
2023-08-14T04:07:24.353Z,18.50
2023-08-14T04:12:26.065Z,18.50
2023-08-14T04:17:27.795Z,18.50
2023-08-14T04:22:29.522Z,18.60
2023-08-14T04:27:31.573Z,18.60
2023-08-14T04:32:34.042Z,18.70
2023-08-14T04:37:35.838Z,18.70
2023-08-14T04:42:39.552Z,18.60
2023-08-14T04:47:42.794Z,18.70
2023-08-14T04:52:44.536Z,19.00
2023-08-14T04:57:46.450Z,19.10
2023-08-14T05:02:48.186Z,19.20
2023-08-14T05:07:50.408Z,19.20
2023-08-14T05:12:52.211Z,19.20
2023-08-14T05:17:53.976Z,19.30
2023-08-14T05:22:55.747Z,19.40
2023-08-14T05:27:57.473Z,19.50
2023-08-14T05:32:59.480Z,19.50
2023-08-14T05:38:01.570Z,19.50
2023-08-14T05:43:07.251Z,19.40
2023-08-14T05:48:09.417Z,19.40
2023-08-14T05:53:11.215Z,19.50
2023-08-14T05:58:12.980Z,19.60
2023-08-14T06:03:20.276Z,19.70
2023-08-14T06:08:27.659Z,19.80
2023-08-14T06:13:29.419Z,20.20
2023-08-14T06:18:31.241Z,20.10
2023-08-14T06:23:33.069Z,20.20
2023-08-14T06:28:34.811Z,20.80
2023-08-14T06:33:38.829Z,21.50
2023-08-14T06:38:41.173Z,22.00
2023-08-14T06:43:42.925Z,22.10
2023-08-14T06:48:44.635Z,22.20
2023-08-14T06:53:46.448Z,22.60
2023-08-14T06:58:48.182Z,24.20
2023-08-14T07:03:50.126Z,25.70
2023-08-14T07:08:51.988Z,24.60
2023-08-14T07:13:55.517Z,28.20
2023-08-14T07:18:57.280Z,26.90
2023-08-14T07:23:59.004Z,28.40
2023-08-14T07:29:00.765Z,28.70
2023-08-14T07:34:02.537Z,26.90
2023-08-14T07:39:04.829Z,25.80
2023-08-14T07:44:06.813Z,24.70
2023-08-14T07:49:08.676Z,23.60
2023-08-14T07:54:10.422Z,23.20
2023-08-14T07:59:12.157Z,24.20
2023-08-14T08:04:26.616Z,25.50
2023-08-14T08:09:28.676Z,25.60
2023-08-14T08:14:30.530Z,24.90
2023-08-14T08:19:32.329Z,24.40
2023-08-14T08:24:34.142Z,24.50
2023-08-14T08:29:35.898Z,23.90
2023-08-14T08:34:37.672Z,27.60
2023-08-14T08:39:39.420Z,30.20
2023-08-14T08:44:46.086Z,28.00
2023-08-14T08:49:47.917Z,26.20
2023-08-14T08:54:50.298Z,24.60
2023-08-14T08:59:52.756Z,24.40
2023-08-14T09:04:54.737Z,24.50
2023-08-14T09:09:56.694Z,28.80
2023-08-14T09:15:07.100Z,31.80
2023-08-14T09:20:19.571Z,33.60
2023-08-14T09:25:30.680Z,34.30
2023-08-14T09:30:32.494Z,32.40
2023-08-14T09:35:34.262Z,32.30
2023-08-14T09:40:36.649Z,29.50
2023-08-14T09:45:38.450Z,29.40
2023-08-14T09:50:40.204Z,29.10
2023-08-14T09:55:42.821Z,27.60
2023-08-14T10:00:44.745Z,27.50
2023-08-14T10:05:46.696Z,28.30
2023-08-14T10:11:05.505Z,29.60
2023-08-14T10:16:15.933Z,32.40
2023-08-14T10:21:18.782Z,28.20
2023-08-14T10:26:21.756Z,27.00
2023-08-14T10:31:24.129Z,27.10
2023-08-14T10:36:29.553Z,27.10
2023-08-14T10:41:35.329Z,27.00
2023-08-14T10:46:43.975Z,26.60
2023-08-14T10:51:46.750Z,25.30
2023-08-14T10:56:50.546Z,25.20
2023-08-14T11:02:06.070Z,25.00
2023-08-14T11:07:12.713Z,25.40
2023-08-14T11:12:14.610Z,25.30
2023-08-14T11:17:16.487Z,25.30
2023-08-14T11:22:20.920Z,24.80
2023-08-14T11:27:24.360Z,24.90
2023-08-14T11:32:27.048Z,25.10
2023-08-14T11:37:28.887Z,26.10
2023-08-14T11:42:30.646Z,26.00
2023-08-14T11:47:39.915Z,25.80
2023-08-14T11:52:43.357Z,26.20
2023-08-14T11:57:45.899Z,26.00
2023-08-14T12:02:47.909Z,25.50
2023-08-14T12:07:49.634Z,25.80
2023-08-14T12:12:55.417Z,26.00
2023-08-14T12:17:58.382Z,26.00
2023-08-14T12:23:15.887Z,25.80
2023-08-14T12:28:17.656Z,25.50
2023-08-14T12:33:19.460Z,26.00
2023-08-14T12:38:21.160Z,25.50
2023-08-14T12:43:30.619Z,25.60
2023-08-14T12:48:32.603Z,25.40
2023-08-14T12:53:34.308Z,25.40
2023-08-14T12:58:36.083Z,25.20
2023-08-14T13:03:38.158Z,25.00
2023-08-14T13:08:41.601Z,24.90
2023-08-14T13:13:43.388Z,24.90
2023-08-14T13:18:45.689Z,25.20
2023-08-14T13:23:50.660Z,24.90
2023-08-14T13:28:54.961Z,24.40
2023-08-14T13:33:57.040Z,24.30
2023-08-14T13:38:58.862Z,24.40
2023-08-14T13:44:00.901Z,24.50
2023-08-14T13:49:04.513Z,24.90
2023-08-14T13:54:06.513Z,25.50
2023-08-14T13:59:08.309Z,25.50
2023-08-14T14:04:10.134Z,25.30
2023-08-14T14:09:11.883Z,25.10
2023-08-14T14:14:13.677Z,25.30
2023-08-14T14:19:15.393Z,25.30
2023-08-14T14:24:18.473Z,25.00
2023-08-14T14:29:20.295Z,25.00
2023-08-14T14:34:22.344Z,24.70
2023-08-14T14:39:24.239Z,24.80
2023-08-14T14:44:26.812Z,24.40
2023-08-14T14:49:28.546Z,24.20
2023-08-14T14:54:30.349Z,24.30
2023-08-14T14:59:32.245Z,24.50
2023-08-14T15:04:34.026Z,24.40
2023-08-14T15:09:35.744Z,24.50
2023-08-14T15:14:37.485Z,24.40
2023-08-14T15:19:39.474Z,24.40
2023-08-14T15:24:41.236Z,24.40
2023-08-14T15:29:42.999Z,24.20
2023-08-14T15:34:44.793Z,24.10
2023-08-14T15:39:46.514Z,24.00
2023-08-14T15:44:48.320Z,23.90
2023-08-14T15:49:50.072Z,23.80
2023-08-14T15:54:53.955Z,23.80
2023-08-14T15:59:55.914Z,23.60
2023-08-14T16:04:58.166Z,23.60
2023-08-14T16:09:59.872Z,23.50
2023-08-14T16:15:01.819Z,23.50
2023-08-14T16:20:05.124Z,23.30
2023-08-14T16:25:07.710Z,23.10
2023-08-14T16:30:09.832Z,23.00
2023-08-14T16:35:11.581Z,22.70
2023-08-14T16:40:13.511Z,22.50
2023-08-14T16:45:16.511Z,22.20
2023-08-14T16:50:18.275Z,22.00
2023-08-14T16:55:19.991Z,21.90
2023-08-14T17:00:21.709Z,21.80
2023-08-14T17:05:24.600Z,21.70
2023-08-14T17:10:26.985Z,21.60
2023-08-14T17:15:40.029Z,21.50
2023-08-14T17:20:46.500Z,21.40
2023-08-14T17:25:58.684Z,21.20
2023-08-14T17:31:00.427Z,21.00
2023-08-14T17:36:02.249Z,20.70
2023-08-14T17:41:04.391Z,20.50
2023-08-14T17:46:06.254Z,20.40
2023-08-14T17:51:08.056Z,20.50
2023-08-14T17:56:10.120Z,20.40
2023-08-14T18:01:11.918Z,20.40
2023-08-14T18:06:13.637Z,20.40
2023-08-14T18:11:17.371Z,20.30
2023-08-14T18:16:19.318Z,20.20
2023-08-14T18:21:27.800Z,20.00
2023-08-14T18:26:37.656Z,20.00
2023-08-14T18:31:39.431Z,19.80
2023-08-14T18:36:41.374Z,19.70
2023-08-14T18:41:43.090Z,19.60
2023-08-14T18:46:44.917Z,19.50
2023-08-14T18:51:46.957Z,19.30
2023-08-14T18:56:49.090Z,19.20
2023-08-14T19:01:51.907Z,19.20
2023-08-14T19:06:53.760Z,19.00
2023-08-14T19:11:55.511Z,19.00
2023-08-14T19:16:57.309Z,18.90
2023-08-14T19:21:59.188Z,18.80
2023-08-14T19:27:00.932Z,18.80
2023-08-14T19:32:02.651Z,18.80
2023-08-14T19:37:04.450Z,18.90
2023-08-14T19:42:06.471Z,19.10
2023-08-14T19:47:08.348Z,19.20
2023-08-14T19:52:10.175Z,19.50
2023-08-14T19:57:11.960Z,19.40
2023-08-14T20:02:14.182Z,19.20
2023-08-14T20:07:15.916Z,18.90
2023-08-14T20:12:17.662Z,18.70
2023-08-14T20:17:19.673Z,18.50
2023-08-14T20:22:24.586Z,18.40
2023-08-14T20:27:26.318Z,18.30
2023-08-14T20:32:28.063Z,18.20
2023-08-14T20:37:29.771Z,18.20
2023-08-14T20:42:31.592Z,18.10
2023-08-14T20:47:33.348Z,18.10
2023-08-14T20:52:35.152Z,17.90
2023-08-14T20:57:36.986Z,17.80
2023-08-14T21:02:40.614Z,17.70
2023-08-14T21:07:42.413Z,17.60
2023-08-14T21:12:44.455Z,17.60
2023-08-14T21:17:47.037Z,17.50
2023-08-14T21:22:48.767Z,17.50
2023-08-14T21:27:50.675Z,17.40
2023-08-14T21:32:52.440Z,17.30
2023-08-14T21:37:54.209Z,17.20
2023-08-14T21:42:58.336Z,17.10
2023-08-14T21:48:00.182Z,17.00
2023-08-14T21:53:01.971Z,17.00
2023-08-14T21:58:04.020Z,16.90
2023-08-14T22:03:06.058Z,16.80
2023-08-14T22:08:07.907Z,16.80
2023-08-14T22:13:09.610Z,16.80
2023-08-14T22:18:11.356Z,16.70
2023-08-14T22:23:14.003Z,16.70
2023-08-14T22:28:15.899Z,16.60
2023-08-14T22:33:17.608Z,16.50
2023-08-14T22:38:19.343Z,16.50
2023-08-14T22:43:21.175Z,16.40
2023-08-14T22:48:23.016Z,16.30
2023-08-14T22:53:24.916Z,16.20
2023-08-14T22:58:26.675Z,16.10
2023-08-14T23:03:28.453Z,16.10
2023-08-14T23:08:30.222Z,16.10
2023-08-14T23:13:31.996Z,15.90
2023-08-14T23:18:33.722Z,15.90
2023-08-14T23:23:35.444Z,15.80
2023-08-14T23:28:37.138Z,15.70
2023-08-14T23:33:38.860Z,15.80
2023-08-14T23:38:40.681Z,15.80
2023-08-14T23:43:42.463Z,15.70
2023-08-14T23:48:44.192Z,15.60
2023-08-14T23:53:46.029Z,15.50
2023-08-14T23:58:47.750Z,15.50
